Time;durP1;ratioP1;P1;durP2;ratioP2;P2;SDS_P1;SDS_P2;PMS_P1;PMS_P2;Temp;Humidity;BMP_temperature;BMP_pressure;BME280_temperature;BME280_humidity;BME280_pressure;Samples;Min_cycle;Max_cycle;Signal;HPM_P1;HPM_P2
2021/01/22 00:02:07;;;;;;;1.40;0.30;;;;;;;11.15;56.61;98578.09;5024409;28;20091;-74
2021/01/22 00:04:32;;;;;;;0.88;0.57;;;;;;;11.18;56.55;98567.41;5024462;28;20128;-74
2021/01/22 00:06:57;;;;;;;0.75;0.35;;;;;;;11.17;56.37;98574.50;5021474;28;20030;-74
2021/01/22 00:09:23;;;;;;;1.67;0.30;;;;;;;11.21;56.25;98575.22;5021475;28;20045;-74
2021/01/22 00:11:49;;;;;;;0.82;0.20;;;;;;;11.21;56.59;98580.50;5023310;28;20038;-74
2021/01/22 00:14:14;;;;;;;0.98;0.32;;;;;;;11.18;56.29;98580.63;5024042;28;20038;-74
2021/01/22 00:16:40;;;;;;;1.58;0.43;;;;;;;11.12;57.05;98580.88;5024666;28;20064;-74
2021/01/22 00:19:05;;;;;;;0.82;0.30;;;;;;;11.17;56.45;98584.19;5024729;28;20075;-74
2021/01/22 00:21:30;;;;;;;1.15;0.35;;;;;;;11.18;56.86;98578.84;5024409;28;20017;-74
2021/01/22 00:23:56;;;;;;;1.45;0.30;;;;;;;11.18;56.56;98572.69;5020575;28;20030;-74
2021/01/22 00:26:22;;;;;;;2.15;0.60;;;;;;;11.16;56.65;98574.53;5015463;28;20076;-74
2021/01/22 00:28:47;;;;;;;4.13;0.50;;;;;;;11.12;56.64;98575.59;5021069;28;20508;-74
2021/01/22 00:31:12;;;;;;;1.05;0.40;;;;;;;11.07;56.65;98557.28;5021070;28;20120;-74
2021/01/22 00:33:38;;;;;;;1.27;0.40;;;;;;;11.01;57.01;98551.41;5000432;28;20129;-74
2021/01/22 00:36:04;;;;;;;1.08;0.40;;;;;;;10.96;56.31;98549.78;5020964;28;20073;-74
2021/01/22 00:38:29;;;;;;;0.68;0.30;;;;;;;10.98;56.27;98555.03;5020891;28;20037;-74
2021/01/22 00:40:54;;;;;;;1.20;0.50;;;;;;;10.94;56.86;98550.78;5024244;28;20079;-74
2021/01/22 00:43:20;;;;;;;0.43;0.20;;;;;;;10.91;55.87;98535.91;5023472;28;20552;-74
2021/01/22 00:45:45;;;;;;;1.98;0.63;;;;;;;10.91;56.05;98529.78;5019494;28;20400;-74
2021/01/22 00:48:10;;;;;;;1.50;0.50;;;;;;;10.92;55.75;98532.34;5020583;28;20400;-74
2021/01/22 00:50:35;;;;;;;1.67;0.55;;;;;;;10.96;55.58;98533.09;5021635;28;20045;-74
2021/01/22 00:53:02;;;;;;;2.03;0.80;;;;;;;10.87;55.96;98536.97;5022106;28;20029;-74
2021/01/22 00:55:28;;;;;;;2.25;0.80;;;;;;;10.86;56.14;98532.59;5022655;28;20022;-74
2021/01/22 00:58:22;;;;;;;3.42;0.68;;;;;;;10.81;55.90;98545.13;5020452;28;20069;-74
2021/01/22 01:00:56;;;;;;;1.25;0.60;;;;;;;10.76;56.21;98565.53;5019306;28;20096;-74
2021/01/22 01:03:29;;;;;;;2.72;0.60;;;;;;;10.73;56.06;98555.09;5022105;28;20033;-74
2021/01/22 01:05:55;;;;;;;1.50;0.63;;;;;;;10.72;56.75;98543.69;5019061;28;20034;-74
2021/01/22 01:08:21;;;;;;;1.70;0.77;;;;;;;10.66;56.65;98546.59;5020209;28;20042;-74
2021/01/22 01:11:06;;;;;;;1.92;0.90;;;;;;;10.55;56.98;98538.19;5019103;28;20034;-74
2021/01/22 01:13:59;;;;;;;2.13;1.08;;;;;;;10.41;56.84;98528.19;5019712;28;20053;-74
2021/01/22 01:16:25;;;;;;;2.38;0.85;;;;;;;10.38;56.68;98530.06;5024193;28;20026;-75
2021/01/22 01:18:50;;;;;;;3.75;0.93;;;;;;;10.34;56.96;98533.72;5023151;28;20498;-75
2021/01/22 01:21:16;;;;;;;3.25;0.90;;;;;;;10.26;56.44;98523.44;5023583;28;20032;-75
2021/01/22 01:23:41;;;;;;;3.20;1.30;;;;;;;10.17;56.64;98526.44;5020351;28;20041;-75
2021/01/22 01:26:06;;;;;;;2.90;1.00;;;;;;;10.09;56.98;98516.16;5012447;28;20516;-74
2021/01/22 01:28:32;;;;;;;2.38;0.98;;;;;;;10.08;57.07;98511.78;5018715;28;20115;-75
2021/01/22 01:30:57;;;;;;;4.43;1.40;;;;;;;10.00;56.46;98512.06;5020056;28;20471;-75
2021/01/22 01:33:22;;;;;;;2.50;0.98;;;;;;;9.99;57.01;98497.16;5019443;28;20056;-75
2021/01/22 01:35:51;;;;;;;5.72;1.45;;;;;;;9.92;57.10;98485.13;5022360;28;20523;-75
2021/01/22 01:38:18;;;;;;;2.85;1.20;;;;;;;9.86;56.90;98490.63;5023073;28;20502;-75
2021/01/22 01:40:44;;;;;;;2.60;1.05;;;;;;;9.88;56.50;98494.06;5020383;28;20426;-75
2021/01/22 01:43:09;;;;;;;2.42;1.00;;;;;;;9.84;56.67;98476.66;5019179;28;20072;-75
2021/01/22 01:45:39;;;;;;;2.75;1.33;;;;;;;9.84;56.83;98489.81;5019573;28;20041;-75
2021/01/22 01:48:07;;;;;;;3.08;1.40;;;;;;;9.84;57.14;98476.66;5019916;28;20038;-75
2021/01/22 01:50:32;;;;;;;2.88;1.35;;;;;;;9.83;56.86;98478.44;5020105;28;20056;-75
2021/01/22 01:52:59;;;;;;;2.70;1.23;;;;;;;9.76;56.55;98483.97;5022432;28;20499;-75
2021/01/22 01:55:24;;;;;;;3.17;1.20;;;;;;;9.71;56.67;98492.03;5018435;28;20038;-75
2021/01/22 01:57:51;;;;;;;2.63;1.30;;;;;;;9.72;56.62;98490.25;5025211;28;20106;-75
2021/01/22 02:00:17;;;;;;;2.90;1.17;;;;;;;9.67;56.49;98493.06;5027672;28;20057;-74
2021/01/22 02:02:42;;;;;;;3.20;1.38;;;;;;;9.60;56.61;98483.66;5025768;28;20030;-74
2021/01/22 02:05:08;;;;;;;4.30;1.33;;;;;;;9.55;56.41;98481.16;5030919;28;20108;-75
2021/01/22 02:07:33;;;;;;;3.30;1.02;;;;;;;9.48;57.02;98484.91;5027683;28;20029;-74
2021/01/22 02:09:59;;;;;;;3.30;1.63;;;;;;;9.46;56.65;98484.13;5027186;28;20064;-74
2021/01/22 02:12:24;;;;;;;4.45;1.45;;;;;;;9.42;56.81;98475.47;5018803;28;20408;-74
2021/01/22 02:14:50;;;;;;;3.13;1.30;;;;;;;9.30;56.52;98467.13;5027435;28;20554;-75
2021/01/22 02:17:15;;;;;;;4.35;1.30;;;;;;;9.28;57.00;98472.44;5022790;28;20557;-75
2021/01/22 02:20:02;;;;;;;4.13;1.50;;;;;;;9.25;56.69;98461.13;5021413;28;20042;-75
2021/01/22 02:22:27;;;;;;;2.88;1.33;;;;;;;9.23;56.70;98463.00;5018641;28;20077;-74
2021/01/22 02:24:55;;;;;;;3.83;1.23;;;;;;;9.22;57.16;98462.09;5022131;28;20064;-74
2021/01/22 02:27:22;;;;;;;3.03;1.35;;;;;;;9.16;57.04;98449.16;5021491;28;20496;-74
2021/01/22 02:29:48;;;;;;;3.17;1.40;;;;;;;9.11;57.36;98451.09;5020354;28;20034;-74
2021/01/22 02:32:14;;;;;;;3.47;1.50;;;;;;;9.09;57.07;98452.91;5021684;28;20033;-74
2021/01/22 02:34:43;;;;;;;2.22;1.10;;;;;;;9.09;57.07;98460.78;5021912;28;20499;-74
2021/01/22 02:37:13;;;;;;;2.80;1.08;;;;;;;9.04;57.22;98453.09;5021938;28;20108;-74
2021/01/22 02:39:43;;;;;;;2.60;1.20;;;;;;;8.97;57.33;98449.78;5024241;28;20033;-74
2021/01/22 02:42:09;;;;;;;3.78;1.30;;;;;;;8.84;57.80;98456.34;5026030;28;20546;-75
2021/01/22 02:44:36;;;;;;;2.55;1.35;;;;;;;8.74;58.06;98450.50;5024253;28;20547;-74
2021/01/22 02:47:08;;;;;;;3.28;1.50;;;;;;;8.62;58.48;98445.66;5019090;28;20025;-75
2021/01/22 02:49:33;;;;;;;3.28;1.38;;;;;;;8.51;58.39;98431.97;5026088;28;20029;-75
2021/01/22 02:51:58;;;;;;;3.55;1.45;;;;;;;8.41;59.08;98425.28;5022991;28;20666;-74
2021/01/22 02:54:25;;;;;;;3.17;1.40;;;;;;;8.37;59.20;98427.13;5022054;28;20042;-74
2021/01/22 02:57:00;;;;;;;3.22;1.58;;;;;;;8.27;59.45;98420.41;5022540;28;20042;-74
2021/01/22 03:00:04;;;;;;;2.83;1.55;;;;;;;8.15;59.36;98429.56;5022847;28;20037;-74
2021/01/22 03:02:47;;;;;;;3.35;1.65;;;;;;;8.01;58.97;98419.44;5029041;28;20037;-74
2021/01/22 03:05:16;;;;;;;4.35;2.03;;;;;;;7.97;59.13;98422.22;5030176;28;20041;-74
2021/01/22 03:07:53;;;;;;;3.67;1.92;;;;;;;7.95;58.85;98419.63;5022679;28;20030;-74
2021/01/22 03:10:22;;;;;;;5.35;2.15;;;;;;;7.93;58.70;98410.06;5026140;28;20539;-74
2021/01/22 03:12:48;;;;;;;3.78;1.95;;;;;;;7.88;58.83;98410.19;5022912;28;20029;-74
2021/01/22 03:15:15;;;;;;;4.78;2.20;;;;;;;7.87;58.77;98393.59;5021109;28;20508;-74
2021/01/22 03:17:42;;;;;;;4.15;2.20;;;;;;;7.86;58.45;98391.88;5022615;28;20037;-74
2021/01/22 03:20:12;;;;;;;4.28;2.15;;;;;;;7.88;58.50;98390.03;5022497;28;20030;-74
2021/01/22 03:22:38;;;;;;;4.35;2.17;;;;;;;7.88;58.05;98376.06;5022702;28;20033;-75
2021/01/22 03:25:04;;;;;;;5.28;2.00;;;;;;;7.87;57.99;98366.47;5025576;28;20507;-74
2021/01/22 03:27:29;;;;;;;5.45;2.47;;;;;;;7.86;58.07;98367.38;5025524;28;20048;-74
2021/01/22 03:29:54;;;;;;;5.10;2.08;;;;;;;7.84;58.25;98362.16;5022220;28;20038;-74
2021/01/22 03:32:20;;;;;;;4.15;2.05;;;;;;;7.83;58.06;98367.44;5021620;28;20131;-74
2021/01/22 03:34:45;;;;;;;5.35;2.03;;;;;;;7.85;57.54;98376.16;5024095;28;20077;-74
2021/01/22 03:37:10;;;;;;;4.65;2.30;;;;;;;7.85;57.56;98371.75;5025469;28;20064;-74
2021/01/22 03:39:36;;;;;;;5.30;2.42;;;;;;;7.87;57.58;98376.97;5024816;28;20036;-74
2021/01/22 03:42:03;;;;;;;4.05;2.15;;;;;;;7.87;57.16;98369.09;5021654;28;20477;-74
2021/01/22 03:44:28;;;;;;;4.97;2.40;;;;;;;7.88;57.25;98371.66;5026654;28;20104;-74
2021/01/22 03:46:53;;;;;;;5.50;2.83;;;;;;;7.97;58.28;98367.91;5015992;28;20052;-75
2021/01/22 03:49:19;;;;;;;7.35;3.83;;;;;;;8.07;60.85;98368.50;5025238;28;20392;-74
2021/01/22 03:51:44;;;;;;;7.50;3.28;;;;;;;8.19;57.60;98365.47;5023291;28;20439;-74
2021/01/22 03:54:09;;;;;;;5.93;2.40;;;;;;;8.23;57.38;98361.84;5020692;28;20412;-74
2021/01/22 03:56:35;;;;;;;5.97;3.30;;;;;;;8.19;57.11;98357.59;5021233;28;20037;-74
2021/01/22 03:59:00;;;;;;;7.85;3.00;;;;;;;8.26;56.94;98353.88;5021504;28;20405;-74
2021/01/22 04:01:28;;;;;;;10.20;5.57;;;;;;;8.27;57.54;98352.09;5021482;28;20117;-74
2021/01/22 04:03:53;;;;;;;8.15;3.80;;;;;;;8.31;56.96;98345.84;5022823;28;20037;-74
2021/01/22 04:06:19;;;;;;;6.53;3.72;;;;;;;8.32;57.12;98334.41;5024890;28;20043;-74
2021/01/22 04:08:45;;;;;;;7.18;4.05;;;;;;;8.30;57.29;98337.06;5022988;28;20076;-74
2021/01/22 04:11:10;;;;;;;7.53;4.03;;;;;;;8.27;57.28;98337.19;5021264;28;20080;-74
2021/01/22 04:13:35;;;;;;;6.85;3.42;;;;;;;8.25;56.58;98341.66;5021169;28;20046;-74
2021/01/22 04:16:02;;;;;;;7.15;4.20;;;;;;;8.21;57.66;98334.75;5028664;28;20033;-74
2021/01/22 04:18:27;;;;;;;7.13;4.63;;;;;;;8.26;57.29;98337.25;5021165;28;20033;-74
2021/01/22 04:20:53;;;;;;;6.80;4.00;;;;;;;8.20;56.21;98338.31;5023173;28;20048;-74
2021/01/22 04:23:18;;;;;;;6.50;3.38;;;;;;;8.24;56.21;98337.28;5023825;28;20041;-74
2021/01/22 04:25:46;;;;;;;6.63;3.15;;;;;;;8.18;56.53;98324.34;5022464;28;20085;-74
2021/01/22 04:28:12;;;;;;;8.13;3.90;;;;;;;8.02;56.73;98333.63;5020963;28;20076;-74
2021/01/22 04:30:37;;;;;;;8.60;4.75;;;;;;;7.90;57.06;98325.19;5021962;28;20034;-74
2021/01/22 04:33:02;;;;;;;7.72;3.60;;;;;;;7.83;57.22;98322.81;5023804;28;20033;-74
2021/01/22 04:35:28;;;;;;;8.10;3.70;;;;;;;7.75;57.39;98307.28;5022910;28;20034;-74
2021/01/22 04:37:53;;;;;;;5.05;3.20;;;;;;;7.66;57.57;98289.19;5021010;28;20048;-74
2021/01/22 04:40:19;;;;;;;6.72;3.83;;;;;;;7.55;58.04;98292.13;5014748;28;20034;-74
2021/01/22 04:42:44;;;;;;;6.88;4.00;;;;;;;7.52;57.97;98283.47;5020035;28;20099;-74
2021/01/22 04:45:12;;;;;;;6.40;3.53;;;;;;;7.45;58.25;98278.41;5020709;28;20041;-74
2021/01/22 04:47:38;;;;;;;7.50;3.88;;;;;;;7.39;58.41;98262.88;5020407;28;20091;-74
2021/01/22 04:50:05;;;;;;;6.43;3.53;;;;;;;7.37;58.47;98269.91;5020743;28;20256;-74
2021/01/22 04:52:31;;;;;;;7.80;3.83;;;;;;;7.37;58.27;98272.53;5019997;28;20397;-74
2021/01/22 04:54:57;;;;;;;7.10;3.72;;;;;;;7.29;58.83;98278.94;5023748;28;20037;-74
2021/01/22 04:57:24;;;;;;;6.38;3.10;;;;;;;7.19;59.07;98278.31;5018652;28;20037;-74
2021/01/22 04:59:51;;;;;;;6.47;3.80;;;;;;;7.13;59.25;98275.88;5020522;28;20033;-75
2021/01/22 05:02:19;;;;;;;6.82;3.70;;;;;;;7.09;59.42;98274.25;5019944;28;20038;-73
2021/01/22 05:04:45;;;;;;;8.70;3.90;;;;;;;7.02;59.48;98277.03;5034069;28;20635;-74
2021/01/22 05:07:11;;;;;;;7.22;3.95;;;;;;;6.96;59.42;98276.34;5018633;28;20065;-74
2021/01/22 05:09:38;;;;;;;6.45;4.07;;;;;;;6.94;59.38;98281.66;5021058;28;20038;-74
2021/01/22 05:12:04;;;;;;;8.55;4.35;;;;;;;6.93;59.57;98287.78;5023380;28;20041;-74
2021/01/22 05:14:30;;;;;;;8.60;4.32;;;;;;;6.88;59.81;98294.91;5023186;28;20555;-74
2021/01/22 05:17:04;;;;;;;8.63;4.93;;;;;;;6.80;59.60;98287.22;5023572;28;20117;-74
2021/01/22 05:19:30;;;;;;;7.53;4.40;;;;;;;6.75;60.26;98288.25;5023495;28;20446;-72
2021/01/22 05:21:56;;;;;;;7.90;4.15;;;;;;;6.75;60.33;98275.16;5019978;28;20042;-72
2021/01/22 05:24:22;;;;;;;8.30;4.55;;;;;;;6.76;60.08;98258.53;5013485;28;20029;-72
2021/01/22 05:26:58;;;;;;;7.25;4.57;;;;;;;6.79;60.03;98253.22;5022371;28;20518;-72
2021/01/22 05:29:24;;;;;;;8.48;5.35;;;;;;;6.78;60.11;98251.47;5020023;28;20485;-72
2021/01/22 05:31:49;;;;;;;8.65;4.82;;;;;;;6.75;59.86;98241.06;5022416;28;20038;-72
2021/01/22 05:34:14;;;;;;;7.82;4.45;;;;;;;6.66;60.61;98231.72;5022298;28;20087;-72
2021/01/22 05:36:40;;;;;;;9.52;5.15;;;;;;;6.65;60.49;98235.22;5021804;28;20087;-72
2021/01/22 05:39:05;;;;;;;8.35;5.40;;;;;;;6.62;60.59;98234.44;5011855;28;20041;-72
2021/01/22 05:41:30;;;;;;;8.77;5.35;;;;;;;6.60;60.47;98250.19;5018939;28;20112;-72
2021/01/22 05:43:56;;;;;;;10.43;5.45;;;;;;;6.61;60.76;98248.47;5018504;28;20057;-72
2021/01/22 05:46:27;;;;;;;8.20;5.32;;;;;;;6.61;60.67;98245.84;5015197;28;20099;-72
2021/01/22 05:49:09;;;;;;;7.50;5.00;;;;;;;6.57;60.90;98243.28;5022046;28;20033;-72
2021/01/22 05:51:34;;;;;;;9.85;5.30;;;;;;;6.52;61.03;98250.44;5022336;28;20581;-73
2021/01/22 05:54:00;;;;;;;8.00;4.88;;;;;;;6.52;60.94;98250.44;5018369;28;20048;-73
2021/01/22 05:56:25;;;;;;;10.45;6.18;;;;;;;6.54;61.54;98253.84;5019274;28;20048;-72
2021/01/22 05:58:51;;;;;;;9.18;4.88;;;;;;;6.52;61.19;98260.91;5014017;28;20107;-72
2021/01/22 06:01:18;;;;;;;9.60;5.43;;;;;;;6.47;61.06;98254.94;5022030;28;20519;-71
2021/01/22 06:03:46;;;;;;;10.02;6.00;;;;;;;6.47;61.39;98254.06;5023148;28;20124;-71
2021/01/22 06:06:12;;;;;;;8.38;5.30;;;;;;;6.38;61.49;98256.91;5016628;28;20033;-69
2021/01/22 06:08:50;;;;;;;13.00;5.80;;;;;;;6.29;62.08;98258.03;5021825;28;20041;-71
2021/01/22 06:11:17;;;;;;;10.13;5.75;;;;;;;6.32;62.17;98265.81;5025594;28;20095;-70
2021/01/22 06:13:48;;;;;;;10.68;6.32;;;;;;;6.29;62.01;98258.88;5031944;28;20029;-71
2021/01/22 06:16:16;;;;;;;11.13;6.45;;;;;;;6.28;61.87;98256.28;5030183;28;20564;-69
2021/01/22 06:18:47;;;;;;;11.25;5.80;;;;;;;6.29;61.95;98263.25;5027521;28;20034;-71
2021/01/22 06:21:21;;;;;;;8.07;5.40;;;;;;;6.23;61.89;98266.00;5023739;28;20037;-71
2021/01/22 06:23:49;;;;;;;12.82;6.97;;;;;;;6.17;62.49;98268.78;5027358;28;20540;-71
2021/01/22 06:26:15;;;;;;;11.93;7.30;;;;;;;6.11;62.66;98268.03;5027577;28;20040;-71
2021/01/22 06:28:42;;;;;;;11.63;6.78;;;;;;;6.10;62.79;98255.88;5028533;28;20400;-70
2021/01/22 06:31:09;;;;;;;10.35;6.38;;;;;;;6.12;62.47;98256.66;5025606;28;20547;-71
2021/01/22 06:33:36;;;;;;;10.45;6.57;;;;;;;6.11;62.91;98259.34;5025351;28;20088;-71
2021/01/22 06:36:02;;;;;;;13.80;7.07;;;;;;;6.12;62.50;98258.44;5029123;28;20037;-70
2021/01/22 06:38:29;;;;;;;11.75;6.50;;;;;;;6.04;62.63;98263.84;5028976;28;20033;-71
2021/01/22 06:40:55;;;;;;;10.13;6.85;;;;;;;5.98;62.56;98255.31;5025907;28;20049;-71
2021/01/22 06:43:21;;;;;;;11.45;6.72;;;;;;;5.93;62.96;98258.88;5024949;28;20033;-70
2021/01/22 06:45:47;;;;;;;10.57;6.05;;;;;;;5.93;62.88;98264.09;5025374;28;20035;-69
2021/01/22 06:48:13;;;;;;;11.05;6.68;;;;;;;5.89;63.27;98265.06;5025515;28;20461;-71
2021/01/22 06:50:38;;;;;;;10.07;7.05;;;;;;;5.86;63.47;98264.25;5026703;28;20092;-69
2021/01/22 06:53:08;;;;;;;11.90;6.72;;;;;;;5.87;63.52;98259.00;5028267;28;20029;-71
2021/01/22 06:55:33;;;;;;;12.07;6.70;;;;;;;5.86;63.50;98272.09;5028561;28;20033;-71
2021/01/22 06:58:30;;;;;;;12.55;6.68;;;;;;;5.82;63.90;98273.94;5020969;28;20105;-71
2021/01/22 07:01:01;;;;;;;10.50;6.50;;;;;;;5.82;63.75;98265.25;5025572;28;20044;-71
2021/01/22 07:03:36;;;;;;;12.80;6.80;;;;;;;5.90;64.15;98260.69;5023472;28;20112;-70
2021/01/22 07:06:07;;;;;;;12.30;7.57;;;;;;;5.89;63.94;98254.59;5024255;28;20056;-70
2021/01/22 07:08:55;;;;;;;9.93;5.70;;;;;;;5.91;63.75;98262.38;5035393;28;20399;-71
2021/01/22 07:11:21;;;;;;;9.98;5.95;;;;;;;5.98;63.93;98263.16;5030532;28;20480;-71
2021/01/22 07:13:46;;;;;;;12.80;6.68;;;;;;;6.01;63.62;98263.06;5018846;28;20072;-71
2021/01/22 07:16:18;;;;;;;9.30;5.90;;;;;;;6.05;63.56;98264.69;5031310;28;20077;-71
2021/01/22 07:18:55;;;;;;;11.80;7.00;;;;;;;6.08;63.79;98262.03;5022516;28;20048;-71
2021/01/22 07:21:37;;;;;;;11.82;6.53;;;;;;;6.14;63.27;98259.25;5024077;28;20091;-71
2021/01/22 07:24:12;;;;;;;10.52;6.25;;;;;;;6.25;63.42;98265.09;5021522;28;20049;-71
2021/01/22 07:26:44;;;;;;;10.25;6.78;;;;;;;6.31;63.37;98266.69;5023013;28;20037;-70
2021/01/22 07:29:19;;;;;;;10.98;7.22;;;;;;;6.37;63.67;98263.94;5025486;28;20052;-71
2021/01/22 07:31:56;;;;;;;10.43;6.00;;;;;;;6.43;62.94;98263.75;5023592;28;20034;-71
2021/01/22 07:34:36;;;;;;;10.68;6.68;;;;;;;6.39;63.16;98259.47;5021607;28;20125;-71
2021/01/22 07:37:06;;;;;;;9.05;6.15;;;;;;;6.51;62.79;98263.56;5021869;28;20038;-73
2021/01/22 07:39:32;;;;;;;22.55;15.93;;;;;;;6.52;62.73;98257.41;5022072;28;20061;-71
2021/01/22 07:42:04;;;;;;;15.98;10.25;;;;;;;6.58;62.71;98250.25;5024102;28;20601;-71
2021/01/22 07:44:29;;;;;;;9.45;5.80;;;;;;;6.67;62.46;98251.78;5025030;28;20107;-71
2021/01/22 07:46:54;;;;;;;10.55;6.03;;;;;;;6.72;62.62;98254.28;5016893;28;20140;-71
2021/01/22 07:49:20;;;;;;;21.67;8.45;;;;;;;6.76;62.52;98267.25;5025365;28;20033;-71
2021/01/22 07:51:46;;;;;;;11.93;6.45;;;;;;;6.82;62.41;98268.84;5023116;28;20040;-71
2021/01/22 07:54:12;;;;;;;11.88;6.15;;;;;;;6.80;62.56;98270.66;5026105;28;20029;-69
2021/01/22 07:56:39;;;;;;;10.90;5.68;;;;;;;6.81;62.44;98272.34;5021524;28;20030;-71
2021/01/22 07:59:06;;;;;;;11.10;6.53;;;;;;;6.91;62.48;98271.22;5018599;28;20164;-72
2021/01/22 08:01:31;;;;;;;11.48;6.13;;;;;;;6.95;62.55;98266.75;5026312;28;20040;-70
2021/01/22 08:03:57;;;;;;;11.75;5.53;;;;;;;7.02;62.50;98271.78;5027845;28;20045;-71
2021/01/22 08:06:22;;;;;;;9.30;5.57;;;;;;;7.07;62.73;98269.03;5024808;28;20029;-71
2021/01/22 08:08:48;;;;;;;9.48;5.05;;;;;;;7.15;62.43;98281.91;5022153;28;20041;-71
2021/01/22 08:11:20;;;;;;;8.93;5.13;;;;;;;7.27;62.08;98285.97;5020795;28;20034;-71
2021/01/22 08:13:46;;;;;;;7.28;4.57;;;;;;;7.34;61.87;98288.38;5022426;28;20029;-70
2021/01/22 08:16:12;;;;;;;9.65;5.47;;;;;;;7.46;61.83;98285.38;5027267;28;20037;-71
2021/01/22 08:18:44;;;;;;;8.32;4.18;;;;;;;7.54;61.43;98292.16;5024397;28;20025;-70
2021/01/22 08:21:10;;;;;;;9.30;4.28;;;;;;;7.67;61.82;98288.28;5032227;28;20540;-71
2021/01/22 08:23:36;;;;;;;20.40;6.65;;;;;;;7.75;61.48;98286.28;5031347;28;20113;-70
2021/01/22 08:26:02;;;;;;;13.30;5.25;;;;;;;7.85;61.33;98284.22;5025052;28;20179;-70
2021/01/22 08:28:28;;;;;;;10.85;3.95;;;;;;;7.93;61.35;98278.75;5032535;28;20120;-71
2021/01/22 08:30:54;;;;;;;7.60;4.22;;;;;;;7.96;61.24;98271.63;5021453;28;20042;-71
2021/01/22 08:33:24;;;;;;;5.78;3.30;;;;;;;8.01;60.73;98280.22;5013675;28;20663;-71
2021/01/22 08:35:49;;;;;;;6.30;3.50;;;;;;;8.13;61.17;98271.94;5020787;28;20049;-71
2021/01/22 08:38:15;;;;;;;10.40;4.85;;;;;;;8.23;60.56;98271.66;5020802;28;20410;-71
2021/01/22 08:40:45;;;;;;;6.72;3.20;;;;;;;8.40;60.58;98279.00;5022086;28;20404;-71
2021/01/22 08:43:12;;;;;;;6.07;3.03;;;;;;;8.57;59.91;98281.94;5023846;28;20044;-71
2021/01/22 08:45:42;;;;;;;8.60;3.63;;;;;;;8.66;59.36;98275.50;5019809;28;20483;-70
2021/01/22 08:48:08;;;;;;;7.82;3.50;;;;;;;8.73;59.57;98279.63;5020982;28;20528;-71
2021/01/22 08:50:34;;;;;;;9.68;3.92;;;;;;;8.73;59.79;98272.59;5020904;28;20045;-71
2021/01/22 08:53:10;;;;;;;6.75;3.70;;;;;;;8.74;59.33;98276.94;5023234;28;20697;-71
2021/01/22 08:55:36;;;;;;;7.30;3.63;;;;;;;8.76;59.21;98272.50;5023083;28;20114;-71
2021/01/22 08:58:04;;;;;;;7.18;3.13;;;;;;;8.80;59.78;98272.38;5016465;28;20041;-71
2021/01/22 09:00:29;;;;;;;7.38;3.03;;;;;;;8.83;59.63;98280.16;5023692;28;20041;-71
2021/01/22 09:02:56;;;;;;;7.18;3.35;;;;;;;8.81;60.30;98277.59;5019880;28;20056;-70
2021/01/22 09:05:21;;;;;;;6.97;2.95;;;;;;;8.83;59.43;98274.91;5020145;28;20077;-71
2021/01/22 09:08:08;;;;;;;5.75;2.88;;;;;;;8.86;60.11;98280.06;5034316;28;20115;-71
2021/01/22 09:10:34;;;;;;;7.22;2.97;;;;;;;8.95;59.52;98275.31;5020764;28;20105;-71
2021/01/22 09:13:12;;;;;;;5.93;2.47;;;;;;;9.01;59.50;98282.13;5023149;28;20551;-71
2021/01/22 09:15:38;;;;;;;7.07;3.10;;;;;;;9.11;60.30;98282.66;5025891;28;20048;-71
2021/01/22 09:18:25;;;;;;;5.25;2.38;;;;;;;9.18;60.30;98282.41;5019943;28;20095;-71
2021/01/22 09:21:07;;;;;;;7.18;2.85;;;;;;;9.35;59.72;98286.19;5022815;28;20041;-70
2021/01/22 09:23:35;;;;;;;6.57;2.97;;;;;;;9.47;59.50;98298.03;5022675;28;20042;-71
2021/01/22 09:26:01;;;;;;;8.23;3.30;;;;;;;9.55;59.27;98296.81;5019898;28;20061;-71
2021/01/22 09:28:26;;;;;;;6.35;2.45;;;;;;;9.71;59.05;98301.53;5020016;28;20041;-71
2021/01/22 09:30:52;;;;;;;5.82;2.33;;;;;;;9.83;58.61;98295.78;5022792;28;20116;-71
2021/01/22 09:33:18;;;;;;;5.30;2.70;;;;;;;9.96;58.46;98296.16;5022677;28;20451;-71
2021/01/22 09:35:44;;;;;;;5.57;2.03;;;;;;;10.09;58.53;98298.25;5021531;28;20044;-70
2021/01/22 09:38:09;;;;;;;7.55;2.38;;;;;;;10.26;57.98;98294.06;5019736;28;20038;-71
2021/01/22 09:40:35;;;;;;;3.92;1.35;;;;;;;10.40;57.55;98293.53;5020347;28;20038;-71
2021/01/22 09:43:01;;;;;;;6.00;1.35;;;;;;;10.59;57.38;98289.22;5021370;28;20029;-71
2021/01/22 09:45:26;;;;;;;3.17;1.15;;;;;;;10.77;55.98;98300.78;5019222;28;20037;-71
2021/01/22 09:47:51;;;;;;;3.70;1.20;;;;;;;10.95;55.54;98305.28;5019498;28;20057;-72
2021/01/22 09:50:18;;;;;;;3.25;1.00;;;;;;;11.17;55.38;98299.91;5019524;28;20714;-71
2021/01/22 09:52:44;;;;;;;5.78;1.83;;;;;;;11.35;54.77;98305.31;5020140;28;20026;-72
2021/01/22 09:55:11;;;;;;;3.60;1.25;;;;;;;11.47;53.65;98312.66;5022283;28;20489;-71
2021/01/22 09:57:36;;;;;;;3.97;1.60;;;;;;;11.57;53.64;98307.81;5018873;28;20037;-71
2021/01/22 10:00:07;;;;;;;3.92;1.38;;;;;;;11.57;53.56;98313.09;5022881;28;20025;-70
2021/01/22 10:02:33;;;;;;;4.22;1.33;;;;;;;11.67;53.68;98316.19;5021142;28;20032;-71
2021/01/22 10:04:59;;;;;;;6.10;1.90;;;;;;;11.77;53.65;98320.97;5027719;28;20037;-71
2021/01/22 10:07:24;;;;;;;5.00;1.40;;;;;;;11.75;52.92;98314.91;5027276;28;20045;-70
2021/01/22 10:09:50;;;;;;;5.22;1.35;;;;;;;11.70;53.43;98316.91;5027705;28;20037;-71
2021/01/22 10:12:15;;;;;;;4.10;1.23;;;;;;;11.60;53.16;98324.38;5025100;28;20041;-71
2021/01/22 10:14:41;;;;;;;3.55;1.02;;;;;;;11.61;53.16;98314.69;5025362;28;20037;-72
2021/01/22 10:17:06;;;;;;;5.85;1.52;;;;;;;11.67;53.44;98319.69;5030694;28;20119;-71
2021/01/22 10:19:32;;;;;;;3.90;1.50;;;;;;;11.64;53.49;98325.13;5021346;28;20052;-70
2021/01/22 10:21:57;;;;;;;3.90;1.48;;;;;;;11.67;53.00;98319.69;5029547;28;20507;-71
2021/01/22 10:24:23;;;;;;;6.65;1.60;;;;;;;11.69;53.45;98315.19;5020759;28;20041;-70
2021/01/22 10:26:49;;;;;;;3.88;1.40;;;;;;;11.70;53.67;98313.41;5023594;28;20091;-71
2021/01/22 10:29:16;;;;;;;4.03;1.40;;;;;;;11.67;52.96;98317.03;5022521;28;20045;-71
2021/01/22 10:31:41;;;;;;;4.88;1.13;;;;;;;11.66;53.21;98315.34;5021122;28;20048;-71
2021/01/22 10:34:06;;;;;;;4.20;1.20;;;;;;;11.64;53.57;98319.84;5018214;28;20045;-71
2021/01/22 10:36:32;;;;;;;5.72;1.38;;;;;;;11.67;53.71;98317.03;5018426;28;20040;-70
2021/01/22 10:38:57;;;;;;;4.85;1.33;;;;;;;11.70;53.64;98323.97;5022227;28;20113;-71
2021/01/22 10:41:22;;;;;;;5.68;1.60;;;;;;;11.73;53.38;98324.69;5021258;28;20068;-71
2021/01/22 10:43:48;;;;;;;6.88;1.70;;;;;;;11.75;53.53;98327.25;5019046;28;20029;-70
2021/01/22 10:46:13;;;;;;;3.80;1.73;;;;;;;11.74;53.40;98321.13;5022394;28;20046;-71
2021/01/22 10:48:39;;;;;;;7.30;1.98;;;;;;;11.72;53.41;98319.47;5026543;28;20494;-70
2021/01/22 10:51:06;;;;;;;5.13;1.77;;;;;;;11.74;53.53;98313.19;5030085;28;20038;-71
2021/01/22 10:53:33;;;;;;;4.68;1.38;;;;;;;11.78;53.37;98327.13;5028883;28;20041;-71
2021/01/22 10:55:59;;;;;;;4.97;1.60;;;;;;;11.72;53.41;98332.69;5029555;28;20076;-71
2021/01/22 10:58:24;;;;;;;5.05;1.20;;;;;;;11.69;53.63;98322.28;5024779;28;20065;-71
2021/01/22 11:00:49;;;;;;;3.88;1.40;;;;;;;11.73;52.75;98324.69;5026492;28;20543;-70
2021/01/22 11:03:15;;;;;;;3.53;1.08;;;;;;;11.69;52.29;98317.84;5021794;28;20041;-71
2021/01/22 11:05:40;;;;;;;4.63;1.38;;;;;;;11.69;53.12;98317.84;5028095;28;20102;-70
2021/01/22 11:08:05;;;;;;;4.20;1.33;;;;;;;11.73;53.09;98324.69;5029750;28;20448;-71
2021/01/22 11:10:31;;;;;;;2.80;1.10;;;;;;;11.65;53.10;98331.25;5033169;28;20116;-70
2021/01/22 11:12:56;;;;;;;3.70;1.17;;;;;;;11.60;53.45;98331.44;5021773;28;20121;-70
2021/01/22 11:15:22;;;;;;;4.47;1.10;;;;;;;11.59;54.14;98329.75;5022391;28;20042;-71
2021/01/22 11:17:47;;;;;;;4.25;1.20;;;;;;;11.48;54.10;98355.81;5022212;28;20088;-70
2021/01/22 11:20:13;;;;;;;4.03;1.20;;;;;;;11.28;55.98;98357.53;5018596;28;20117;-71
2021/01/22 11:22:39;;;;;;;3.45;1.13;;;;;;;11.07;57.41;98353.19;5022474;28;20045;-70
2021/01/22 11:25:05;;;;;;;3.90;0.90;;;;;;;10.96;58.69;98364.19;5024140;28;20492;-71
2021/01/22 11:27:31;;;;;;;4.20;1.20;;;;;;;10.84;59.17;98354.16;5027144;28;20032;-70
2021/01/22 11:29:57;;;;;;;3.53;0.98;;;;;;;10.74;60.17;98358.94;5023855;28;20038;-71
2021/01/22 11:32:22;;;;;;;3.90;1.00;;;;;;;10.66;60.73;98369.84;5021438;28;20037;-71
2021/01/22 11:34:47;;;;;;;3.17;0.95;;;;;;;10.54;60.88;98365.06;5028399;28;20115;-71
2021/01/22 11:37:13;;;;;;;2.90;0.95;;;;;;;10.51;60.75;98368.66;5021770;28;20044;-71
2021/01/22 11:39:38;;;;;;;4.00;1.10;;;;;;;10.34;61.25;98365.84;5022576;28;20049;-71